sensor_id;sensor_type;location;lat;lon;timestamp;pressure;altitude;pressure_sealevel;temperature;humidity
55010;BME280;40903;51.638;7.528;2023-03-03T00:01:02;101812.22;;;1.88;100.00
55010;BME280;40903;51.638;7.528;2023-03-03T00:03:27;101809.34;;;1.83;100.00
55010;BME280;40903;51.638;7.528;2023-03-03T00:05:53;101815.53;;;1.83;100.00
55010;BME280;40903;51.638;7.528;2023-03-03T00:08:18;101806.44;;;1.84;100.00
55010;BME280;40903;51.638;7.528;2023-03-03T00:10:44;101804.34;;;1.86;100.00
55010;BME280;40903;51.638;7.528;2023-03-03T00:13:20;101802.94;;;1.84;100.00
55010;BME280;40903;51.638;7.528;2023-03-03T00:15:46;101808.69;;;1.87;100.00
55010;BME280;40903;51.638;7.528;2023-03-03T00:20:46;101798.34;;;1.84;100.00
55010;BME280;40903;51.638;7.528;2023-03-03T00:23:14;101808.31;;;1.84;100.00
55010;BME280;40903;51.638;7.528;2023-03-03T00:25:44;101804.16;;;1.81;100.00
55010;BME280;40903;51.638;7.528;2023-03-03T00:28:21;101813.88;;;1.82;100.00
55010;BME280;40903;51.638;7.528;2023-03-03T00:30:47;101812.41;;;1.80;100.00
55010;BME280;40903;51.638;7.528;2023-03-03T00:33:18;101806.22;;;1.79;100.00
55010;BME280;40903;51.638;7.528;2023-03-03T00:35:46;101814.09;;;1.74;100.00
55010;BME280;40903;51.638;7.528;2023-03-03T00:38:16;101811.19;;;1.69;100.00
55010;BME280;40903;51.638;7.528;2023-03-03T00:40:42;101812.00;;;1.63;100.00
55010;BME280;40903;51.638;7.528;2023-03-03T00:45:45;101823.81;;;1.62;100.00
55010;BME280;40903;51.638;7.528;2023-03-03T00:48:21;101819.47;;;1.68;100.00
55010;BME280;40903;51.638;7.528;2023-03-03T00:50:47;101824.44;;;1.71;100.00
55010;BME280;40903;51.638;7.528;2023-03-03T00:53:13;101825.03;;;1.73;100.00
55010;BME280;40903;51.638;7.528;2023-03-03T00:55:41;101830.22;;;1.74;100.00
55010;BME280;40903;51.638;7.528;2023-03-03T00:58:06;101823.38;;;1.72;100.00
55010;BME280;40903;51.638;7.528;2023-03-03T01:00:32;101822.78;;;1.70;100.00
55010;BME280;40903;51.638;7.528;2023-03-03T01:02:59;101819.66;;;1.66;100.00
55010;BME280;40903;51.638;7.528;2023-03-03T01:05:26;101821.53;;;1.66;100.00
55010;BME280;40903;51.638;7.528;2023-03-03T01:07:51;101826.91;;;1.66;100.00
55010;BME280;40903;51.638;7.528;2023-03-03T01:10:16;101826.06;;;1.65;100.00
55010;BME280;40903;51.638;7.528;2023-03-03T01:12:41;101830.00;;;1.69;100.00
55010;BME280;40903;51.638;7.528;2023-03-03T01:15:07;101825.22;;;1.65;100.00
55010;BME280;40903;51.638;7.528;2023-03-03T01:17:33;101821.53;;;1.66;100.00
55010;BME280;40903;51.638;7.528;2023-03-03T01:19:59;101827.72;;;1.66;100.00
55010;BME280;40903;51.638;7.528;2023-03-03T01:22:24;101824.41;;;1.64;100.00
55010;BME280;40903;51.638;7.528;2023-03-03T01:24:50;101816.34;;;1.64;100.00
55010;BME280;40903;51.638;7.528;2023-03-03T01:27:15;101814.72;;;1.70;100.00
55010;BME280;40903;51.638;7.528;2023-03-03T01:29:40;101806.03;;;1.68;100.00
55010;BME280;40903;51.638;7.528;2023-03-03T01:32:05;101808.28;;;1.64;100.00
55010;BME280;40903;51.638;7.528;2023-03-03T01:34:31;101816.16;;;1.66;100.00
55010;BME280;40903;51.638;7.528;2023-03-03T01:36:56;101811.19;;;1.69;100.00
55010;BME280;40903;51.638;7.528;2023-03-03T01:39:21;101814.09;;;1.74;100.00
55010;BME280;40903;51.638;7.528;2023-03-03T01:41:46;101821.50;;;1.79;100.00
55010;BME280;40903;51.638;7.528;2023-03-03T01:44:15;101827.75;;;1.79;100.00
55010;BME280;40903;51.638;7.528;2023-03-03T01:46:43;101829.38;;;1.80;100.00
55010;BME280;40903;51.638;7.528;2023-03-03T01:49:13;101822.56;;;1.84;100.00
55010;BME280;40903;51.638;7.528;2023-03-03T01:51:44;101819.25;;;1.88;100.00
55010;BME280;40903;51.638;7.528;2023-03-03T01:54:14;101808.31;;;1.84;100.00
55010;BME280;40903;51.638;7.528;2023-03-03T01:56:40;101814.50;;;1.84;100.00
55010;BME280;40903;51.638;7.528;2023-03-03T01:59:08;101812.84;;;1.83;100.00
55010;BME280;40903;51.638;7.528;2023-03-03T02:01:36;101807.47;;;1.83;100.00
55010;BME280;40903;51.638;7.528;2023-03-03T02:04:01;101811.81;;;1.84;100.00
55010;BME280;40903;51.638;7.528;2023-03-03T02:06:27;101809.13;;;1.84;100.00
55010;BME280;40903;51.638;7.528;2023-03-03T02:08:58;101805.63;;;1.84;100.00
55010;BME280;40903;51.638;7.528;2023-03-03T02:11:23;101812.22;;;1.81;100.00
55010;BME280;40903;51.638;7.528;2023-03-03T02:13:49;101810.56;;;1.80;100.00
55010;BME280;40903;51.638;7.528;2023-03-03T02:16:14;101816.56;;;1.82;100.00
55010;BME280;40903;51.638;7.528;2023-03-03T02:18:40;101818.63;;;1.80;100.00
55010;BME280;40903;51.638;7.528;2023-03-03T02:21:06;101823.59;;;1.70;100.00
55010;BME280;40903;51.638;7.528;2023-03-03T02:23:55;101821.09;;;1.62;100.00
55010;BME280;40903;51.638;7.528;2023-03-03T02:26:26;101821.53;;;1.66;100.00
55010;BME280;40903;51.638;7.528;2023-03-03T02:28:51;101815.31;;;1.65;100.00
55010;BME280;40903;51.638;7.528;2023-03-03T02:31:19;101811.59;;;1.66;100.00
55010;BME280;40903;51.638;7.528;2023-03-03T02:33:46;101810.97;;;1.71;100.00
55010;BME280;40903;51.638;7.528;2023-03-03T02:39:07;101805.78;;;1.63;100.00
55010;BME280;40903;51.638;7.528;2023-03-03T02:44:32;101811.78;;;1.65;100.00
55010;BME280;40903;51.638;7.528;2023-03-03T02:46:58;101814.91;;;1.68;100.00
55010;BME280;40903;51.638;7.528;2023-03-03T02:49:24;101819.22;;;1.63;100.00
55010;BME280;40903;51.638;7.528;2023-03-03T02:51:50;101820.66;;;1.52;100.00
55010;BME280;40903;51.638;7.528;2023-03-03T02:54:16;101816.34;;;1.51;100.00
55010;BME280;40903;51.638;7.528;2023-03-03T02:56:42;101813.22;;;1.54;100.00
55010;BME280;40903;51.638;7.528;2023-03-03T02:59:07;101812.81;;;1.57;100.00
55010;BME280;40903;51.638;7.528;2023-03-03T03:01:32;101801.44;;;1.62;100.00
55010;BME280;40903;51.638;7.528;2023-03-03T03:04:02;101809.31;;;1.63;100.00
55010;BME280;40903;51.638;7.528;2023-03-03T03:06:29;101811.41;;;1.68;100.00
55010;BME280;40903;51.638;7.528;2023-03-03T03:08:54;101808.91;;;1.66;100.00
55010;BME280;40903;51.638;7.528;2023-03-03T03:11:19;101804.97;;;1.62;100.00
55010;BME280;40903;51.638;7.528;2023-03-03T03:13:45;101804.97;;;1.62;100.00
55010;BME280;40903;51.638;7.528;2023-03-03T03:16:10;101809.50;;;1.62;100.00
55010;BME280;40903;51.638;7.528;2023-03-03T03:18:35;101820.50;;;1.60;100.00
55010;BME280;40903;51.638;7.528;2023-03-03T03:21:10;101814.50;;;1.58;100.00
55010;BME280;40903;51.638;7.528;2023-03-03T03:23:35;101819.88;;;1.58;100.00
55010;BME280;40903;51.638;7.528;2023-03-03T03:26:00;101824.41;;;1.58;100.00
55010;BME280;40903;51.638;7.528;2023-03-03T03:28:26;101825.25;;;1.58;100.00
55010;BME280;40903;51.638;7.528;2023-03-03T03:30:51;101835.97;;;1.52;100.00
55010;BME280;40903;51.638;7.528;2023-03-03T03:33:16;101833.06;;;1.53;100.00
55010;BME280;40903;51.638;7.528;2023-03-03T03:35:42;101832.88;;;1.48;100.00
55010;BME280;40903;51.638;7.528;2023-03-03T03:38:09;101836.78;;;1.46;100.00
55010;BME280;40903;51.638;7.528;2023-03-03T03:40:35;101834.50;;;1.43;100.00
55010;BME280;40903;51.638;7.528;2023-03-03T03:43:00;101840.50;;;1.45;100.00
55010;BME280;40903;51.638;7.528;2023-03-03T03:45:25;101840.47;;;1.38;100.00
55010;BME280;40903;51.638;7.528;2023-03-03T03:47:50;101842.56;;;1.36;100.00
55010;BME280;40903;51.638;7.528;2023-03-03T03:50:16;101836.75;;;1.33;100.00
55010;BME280;40903;51.638;7.528;2023-03-03T03:52:41;101842.75;;;1.35;100.00
55010;BME280;40903;51.638;7.528;2023-03-03T03:55:07;101848.13;;;1.35;100.00
55010;BME280;40903;51.638;7.528;2023-03-03T03:57:33;101844.63;;;1.34;100.00
55010;BME280;40903;51.638;7.528;2023-03-03T03:59:58;101838.03;;;1.37;100.00
55010;BME280;40903;51.638;7.528;2023-03-03T04:02:23;101848.34;;;1.40;100.00
55010;BME280;40903;51.638;7.528;2023-03-03T04:04:48;101835.13;;;1.38;100.00
55010;BME280;40903;51.638;7.528;2023-03-03T04:07:14;101842.13;;;1.33;100.00
55010;BME280;40903;51.638;7.528;2023-03-03T04:09:39;101851.44;;;1.30;100.00
55010;BME280;40903;51.638;7.528;2023-03-03T04:12:04;101840.25;;;1.27;100.00
55010;BME280;40903;51.638;7.528;2023-03-03T04:14:30;101845.19;;;1.23;100.00
55010;BME280;40903;51.638;7.528;2023-03-03T04:16:55;101838.16;;;1.22;100.00
55010;BME280;40903;51.638;7.528;2023-03-03T04:19:21;101851.41;;;1.24;100.00
55010;BME280;40903;51.638;7.528;2023-03-03T04:21:46;101853.06;;;1.25;100.00
55010;BME280;40903;51.638;7.528;2023-03-03T04:24:11;101856.97;;;1.22;100.00
55010;BME280;40903;51.638;7.528;2023-03-03T04:26:36;101854.09;;;1.24;100.00
55010;BME280;40903;51.638;7.528;2023-03-03T04:29:02;101842.50;;;1.23;100.00
55010;BME280;40903;51.638;7.528;2023-03-03T04:31:27;101847.25;;;1.21;100.00
55010;BME280;40903;51.638;7.528;2023-03-03T04:33:52;101840.03;;;1.15;100.00
55010;BME280;40903;51.638;7.528;2023-03-03T04:36:18;101841.69;;;1.16;100.00
55010;BME280;40903;51.638;7.528;2023-03-03T04:38:44;101834.69;;;1.22;100.00
55010;BME280;40903;51.638;7.528;2023-03-03T04:41:09;101850.38;;;1.25;100.00
55010;BME280;40903;51.638;7.528;2023-03-03T04:43:34;101846.44;;;1.27;100.00
55010;BME280;40903;51.638;7.528;2023-03-03T04:45:59;101838.78;;;1.24;100.00
55010;BME280;40903;51.638;7.528;2023-03-03T04:48:25;101850.38;;;1.25;100.00
55010;BME280;40903;51.638;7.528;2023-03-03T04:50:50;101840.69;;;1.30;100.00
55010;BME280;40903;51.638;7.528;2023-03-03T04:53:15;101845.44;;;1.35;100.00
55010;BME280;40903;51.638;7.528;2023-03-03T04:55:41;101847.94;;;1.36;100.00
55010;BME280;40903;51.638;7.528;2023-03-03T04:58:06;101855.38;;;1.34;100.00
55010;BME280;40903;51.638;7.528;2023-03-03T05:00:33;101860.56;;;1.36;100.00
55010;BME280;40903;51.638;7.528;2023-03-03T05:02:58;101854.94;;;1.37;100.00
55010;BME280;40903;51.638;7.528;2023-03-03T05:05:23;101845.25;;;1.43;100.00
55010;BME280;40903;51.638;7.528;2023-03-03T05:07:49;101841.72;;;1.42;100.00
55010;BME280;40903;51.638;7.528;2023-03-03T05:10:14;101844.22;;;1.44;100.00
55010;BME280;40903;51.638;7.528;2023-03-03T05:12:39;101841.34;;;1.45;100.00
55010;BME280;40903;51.638;7.528;2023-03-03T05:15:05;101853.94;;;1.45;100.00
55010;BME280;40903;51.638;7.528;2023-03-03T05:17:30;101855.59;;;1.46;100.00
55010;BME280;40903;51.638;7.528;2023-03-03T05:19:55;101855.41;;;1.47;100.00
55010;BME280;40903;51.638;7.528;2023-03-03T05:22:21;101865.13;;;1.48;100.00
55010;BME280;40903;51.638;7.528;2023-03-03T05:24:46;101859.13;;;1.46;100.00
55010;BME280;40903;51.638;7.528;2023-03-03T05:27:13;101858.69;;;1.43;100.00
55010;BME280;40903;51.638;7.528;2023-03-03T05:29:38;101864.06;;;1.43;100.00
55010;BME280;40903;51.638;7.528;2023-03-03T05:32:04;101855.16;;;1.42;100.00
55010;BME280;40903;51.638;7.528;2023-03-03T05:34:29;101851.84;;;1.40;100.00
55010;BME280;40903;51.638;7.528;2023-03-03T05:36:54;101842.53;;;1.30;100.00
55010;BME280;40903;51.638;7.528;2023-03-03T05:39:19;101835.50;;;1.29;100.00
55010;BME280;40903;51.638;7.528;2023-03-03T05:41:45;101844.56;;;1.21;100.00
55010;BME280;40903;51.638;7.528;2023-03-03T05:44:10;101850.78;;;1.22;100.00
55010;BME280;40903;51.638;7.528;2023-03-03T05:46:35;101854.50;;;1.21;100.00
55010;BME280;40903;51.638;7.528;2023-03-03T05:49:01;101851.59;;;1.22;100.00
55010;BME280;40903;51.638;7.528;2023-03-03T05:51:26;101859.22;;;1.19;100.00
55010;BME280;40903;51.638;7.528;2023-03-03T05:53:51;101860.88;;;1.13;100.00
55010;BME280;40903;51.638;7.528;2023-03-03T05:56:17;101857.56;;;1.18;100.00
55010;BME280;40903;51.638;7.528;2023-03-03T05:58:42;101856.34;;;1.20;100.00
55010;BME280;40903;51.638;7.528;2023-03-03T06:01:07;101867.31;;;1.25;100.00
55010;BME280;40903;51.638;7.528;2023-03-03T06:03:33;101864.84;;;1.24;100.00
55010;BME280;40903;51.638;7.528;2023-03-03T06:05:58;101867.13;;;1.27;100.00
55010;BME280;40903;51.638;7.528;2023-03-03T06:08:23;101864.22;;;1.22;100.00
55010;BME280;40903;51.638;7.528;2023-03-03T06:10:49;101871.22;;;1.16;100.00
55010;BME280;40903;51.638;7.528;2023-03-03T06:13:14;101876.81;;;1.21;100.00
55010;BME280;40903;51.638;7.528;2023-03-03T06:15:39;101878.47;;;1.22;100.00
55010;BME280;40903;51.638;7.528;2023-03-03T06:18:04;101885.28;;;1.18;100.00
55010;BME280;40903;51.638;7.528;2023-03-03T06:20:30;101879.50;;;1.21;100.00
55010;BME280;40903;51.638;7.528;2023-03-03T06:22:56;101886.53;;;1.22;100.00
55010;BME280;40903;51.638;7.528;2023-03-03T06:25:21;101885.91;;;1.20;100.00
55010;BME280;40903;51.638;7.528;2023-03-03T06:27:46;101885.06;;;1.20;100.00
55010;BME280;40903;51.638;7.528;2023-03-03T06:30:12;101889.22;;;1.22;100.00
55010;BME280;40903;51.638;7.528;2023-03-03T06:32:37;101887.56;;;1.21;100.00
55010;BME280;40903;51.638;7.528;2023-03-03T06:35:03;101889.84;;;1.24;100.00
55010;BME280;40903;51.638;7.528;2023-03-03T06:37:28;101891.72;;;1.24;100.00
55010;BME280;40903;51.638;7.528;2023-03-03T06:39:53;101896.25;;;1.30;100.00
55010;BME280;40903;51.638;7.528;2023-03-03T06:42:19;101892.13;;;1.34;100.00
55010;BME280;40903;51.638;7.528;2023-03-03T06:44:45;101903.31;;;1.37;100.00
55010;BME280;40903;51.638;7.528;2023-03-03T06:47:10;101901.06;;;1.41;100.00
55010;BME280;40903;51.638;7.528;2023-03-03T06:49:35;101902.53;;;1.43;100.00
55010;BME280;40903;51.638;7.528;2023-03-03T06:52:01;101905.22;;;1.50;100.00
55010;BME280;40903;51.638;7.528;2023-03-03T06:54:33;101904.59;;;1.48;100.00
55010;BME280;40903;51.638;7.528;2023-03-03T06:57:14;101901.91;;;1.48;100.00
55010;BME280;40903;51.638;7.528;2023-03-03T06:59:40;101917.22;;;1.47;100.00
55010;BME280;40903;51.638;7.528;2023-03-03T07:02:10;101910.19;;;1.46;100.00
55010;BME280;40903;51.638;7.528;2023-03-03T07:04:37;101923.81;;;1.45;100.00
55010;BME280;40903;51.638;7.528;2023-03-03T07:07:12;101927.53;;;1.44;100.00
55010;BME280;40903;51.638;7.528;2023-03-03T07:09:39;101927.72;;;1.42;100.00
55010;BME280;40903;51.638;7.528;2023-03-03T07:12:05;101934.97;;;1.42;100.00
55010;BME280;40903;51.638;7.528;2023-03-03T07:14:34;101932.28;;;1.42;100.00
55010;BME280;40903;51.638;7.528;2023-03-03T07:17:00;101929.59;;;1.42;100.00
55010;BME280;40903;51.638;7.528;2023-03-03T07:19:34;101931.25;;;1.43;100.00
55010;BME280;40903;51.638;7.528;2023-03-03T07:22:07;101933.34;;;1.47;100.00
55010;BME280;40903;51.638;7.528;2023-03-03T07:24:36;101923.84;;;1.51;100.00
55010;BME280;40903;51.638;7.528;2023-03-03T07:29:30;101927.38;;;1.58;100.00
55010;BME280;40903;51.638;7.528;2023-03-03T07:31:56;101934.59;;;1.58;100.00
55010;BME280;40903;51.638;7.528;2023-03-03T07:34:37;101940.16;;;1.56;100.00
55010;BME280;40903;51.638;7.528;2023-03-03T07:37:09;101940.16;;;1.56;100.00
55010;BME280;40903;51.638;7.528;2023-03-03T07:39:37;101945.78;;;1.61;100.00
55010;BME280;40903;51.638;7.528;2023-03-03T07:42:14;101945.56;;;1.63;100.00
55010;BME280;40903;51.638;7.528;2023-03-03T07:44:41;101950.75;;;1.64;100.00
55010;BME280;40903;51.638;7.528;2023-03-03T07:47:28;101955.28;;;1.64;100.00
55010;BME280;40903;51.638;7.528;2023-03-03T07:49:53;101965.22;;;1.63;100.00
55010;BME280;40903;51.638;7.528;2023-03-03T07:54:57;101962.53;;;1.63;100.00
55010;BME280;40903;51.638;7.528;2023-03-03T07:57:24;101966.25;;;1.62;100.00
55010;BME280;40903;51.638;7.528;2023-03-03T07:59:52;101966.88;;;1.64;100.00
55010;BME280;40903;51.638;7.528;2023-03-03T08:04:52;101969.38;;;1.72;100.00
55010;BME280;40903;51.638;7.528;2023-03-03T08:07:18;101978.91;;;1.75;100.00
55010;BME280;40903;51.638;7.528;2023-03-03T08:14:41;101979.50;;;1.70;100.00
55010;BME280;40903;51.638;7.528;2023-03-03T08:17:06;101974.09;;;1.64;100.00
55010;BME280;40903;51.638;7.528;2023-03-03T08:19:38;101983.22;;;1.69;100.00
55010;BME280;40903;51.638;7.528;2023-03-03T08:24:59;101985.09;;;1.69;100.00
55010;BME280;40903;51.638;7.528;2023-03-03T08:27:24;102001.25;;;1.75;100.00
55010;BME280;40903;51.638;7.528;2023-03-03T08:29:50;102007.44;;;1.76;100.00
55010;BME280;40903;51.638;7.528;2023-03-03T08:32:15;102006.84;;;1.80;100.00
55010;BME280;40903;51.638;7.528;2023-03-03T08:34:40;102014.72;;;1.75;100.00
55010;BME280;40903;51.638;7.528;2023-03-03T08:37:06;102014.28;;;1.72;100.00
55010;BME280;40903;51.638;7.528;2023-03-03T08:39:31;102015.91;;;1.66;100.00
55010;BME280;40903;51.638;7.528;2023-03-03T08:41:56;102007.84;;;1.73;100.00
55010;BME280;40903;51.638;7.528;2023-03-03T08:44:22;102012.63;;;1.77;100.00
55010;BME280;40903;51.638;7.528;2023-03-03T08:46:47;102018.81;;;1.71;100.00
55010;BME280;40903;51.638;7.528;2023-03-03T08:49:12;102012.59;;;1.64;100.00
55010;BME280;40903;51.638;7.528;2023-03-03T08:51:37;102012.00;;;1.69;100.00
55010;BME280;40903;51.638;7.528;2023-03-03T08:54:03;102007.84;;;1.66;100.00
55010;BME280;40903;51.638;7.528;2023-03-03T08:56:28;102010.38;;;1.74;100.00
55010;BME280;40903;51.638;7.528;2023-03-03T08:58:53;102007.69;;;1.81;100.00
55010;BME280;40903;51.638;7.528;2023-03-03T09:01:18;102009.75;;;1.85;100.00
55010;BME280;40903;51.638;7.528;2023-03-03T09:03:43;102013.50;;;1.90;100.00
55010;BME280;40903;51.638;7.528;2023-03-03T09:06:09;102013.31;;;1.92;100.00
55010;BME280;40903;51.638;7.528;2023-03-03T09:08:35;102018.88;;;1.90;100.00
55010;BME280;40903;51.638;7.528;2023-03-03T09:11:00;102012.72;;;1.96;100.00
55010;BME280;40903;51.638;7.528;2023-03-03T09:13:27;102015.00;;;1.99;100.00
55010;BME280;40903;51.638;7.528;2023-03-03T09:15:53;102010.66;;;2.05;100.00
55010;BME280;40903;51.638;7.528;2023-03-03T09:20:44;102017.91;;;2.11;100.00
55010;BME280;40903;51.638;7.528;2023-03-03T09:25:41;102022.88;;;2.20;100.00
55010;BME280;40903;51.638;7.528;2023-03-03T09:28:11;102017.91;;;2.17;100.00
55010;BME280;40903;51.638;7.528;2023-03-03T09:30:44;102022.47;;;2.17;100.00
55010;BME280;40903;51.638;7.528;2023-03-03T09:33:16;102031.81;;;2.21;100.00
55010;BME280;40903;51.638;7.528;2023-03-03T09:35:44;102030.97;;;2.27;100.00
55010;BME280;40903;51.638;7.528;2023-03-03T09:38:14;102033.66;;;2.27;100.00
55010;BME280;40903;51.638;7.528;2023-03-03T09:41:28;102039.06;;;2.40;100.00
55010;BME280;40903;51.638;7.528;2023-03-03T09:50:55;102039.91;;;2.40;100.00
55010;BME280;40903;51.638;7.528;2023-03-03T10:01:25;102038.06;;;2.67;100.00
55010;BME280;40903;51.638;7.528;2023-03-03T10:06:37;102043.47;;;2.86;100.00
55010;BME280;40903;51.638;7.528;2023-03-03T10:19:37;102050.09;;;3.10;99.53
55010;BME280;40903;51.638;7.528;2023-03-03T10:22:17;102060.44;;;3.13;99.71
55010;BME280;40903;51.638;7.528;2023-03-03T10:25:45;102060.63;;;3.18;99.55
55010;BME280;40903;51.638;7.528;2023-03-03T10:27:48;102062.50;;;3.17;98.77
55010;BME280;40903;51.638;7.528;2023-03-03T10:32:53;102069.94;;;3.22;98.51
55010;BME280;40903;51.638;7.528;2023-03-03T10:43:07;102074.09;;;3.37;98.40
55010;BME280;40903;51.638;7.528;2023-03-03T10:45:39;102068.06;;;3.42;97.69
55010;BME280;40903;51.638;7.528;2023-03-03T10:48:13;102063.91;;;3.46;97.40
55010;BME280;40903;51.638;7.528;2023-03-03T10:53:15;102063.47;;;3.55;96.27
55010;BME280;40903;51.638;7.528;2023-03-03T10:58:43;102057.56;;;3.78;97.35
55010;BME280;40903;51.638;7.528;2023-03-03T11:03:41;102058.97;;;3.93;96.25
55010;BME280;40903;51.638;7.528;2023-03-03T11:08:52;102054.78;;;4.03;95.53
55010;BME280;40903;51.638;7.528;2023-03-03T11:11:33;102061.78;;;4.11;94.10
55010;BME280;40903;51.638;7.528;2023-03-03T11:14:08;102061.34;;;4.14;94.07
55010;BME280;40903;51.638;7.528;2023-03-03T11:21:50;102052.16;;;4.28;93.30
55010;BME280;40903;51.638;7.528;2023-03-03T11:27:00;102049.97;;;4.43;92.46
55010;BME280;40903;51.638;7.528;2023-03-03T11:37:45;102057.34;;;4.60;90.64
55010;BME280;40903;51.638;7.528;2023-03-03T11:40:19;102049.34;;;4.72;90.88
55010;BME280;40903;51.638;7.528;2023-03-03T11:43:02;102041.59;;;4.82;90.50
55010;BME280;40903;51.638;7.528;2023-03-03T11:45:36;102043.09;;;4.71;87.56
55010;BME280;40903;51.638;7.528;2023-03-03T11:53:14;102037.34;;;4.68;87.17
55010;BME280;40903;51.638;7.528;2023-03-03T11:55:42;102037.25;;;4.81;89.07
55010;BME280;40903;51.638;7.528;2023-03-03T11:58:19;102038.19;;;4.86;88.47
55010;BME280;40903;51.638;7.528;2023-03-03T12:00:55;102031.59;;;4.82;88.01
55010;BME280;40903;51.638;7.528;2023-03-03T12:03:43;102027.13;;;4.94;87.78
55010;BME280;40903;51.638;7.528;2023-03-03T12:11:27;102027.88;;;5.01;85.22
55010;BME280;40903;51.638;7.528;2023-03-03T12:14:00;102019.44;;;5.16;86.25
55010;BME280;40903;51.638;7.528;2023-03-03T12:16:50;102014.72;;;5.29;85.93
55010;BME280;40903;51.638;7.528;2023-03-03T12:22:06;102018.31;;;5.59;86.37
55010;BME280;40903;51.638;7.528;2023-03-03T12:24:44;102015.25;;;5.73;85.18
55010;BME280;40903;51.638;7.528;2023-03-03T12:32:50;102006.88;;;5.93;83.28
55010;BME280;40903;51.638;7.528;2023-03-03T12:40:31;102009.28;;;6.01;82.11
55010;BME280;40903;51.638;7.528;2023-03-03T12:45:29;102003.03;;;6.18;80.78
55010;BME280;40903;51.638;7.528;2023-03-03T12:47:59;101998.78;;;6.22;80.66
55010;BME280;40903;51.638;7.528;2023-03-03T12:50:41;101998.69;;;6.29;78.46
55010;BME280;40903;51.638;7.528;2023-03-03T12:53:12;102003.03;;;6.30;78.13
55010;BME280;40903;51.638;7.528;2023-03-03T12:55:50;101994.34;;;6.39;79.01
55010;BME280;40903;51.638;7.528;2023-03-03T13:00:51;101991.47;;;6.75;78.04
55010;BME280;40903;51.638;7.528;2023-03-03T13:03:24;101993.25;;;6.81;76.34
55010;BME280;40903;51.638;7.528;2023-03-03T13:08:29;101994.53;;;6.67;74.64
55010;BME280;40903;51.638;7.528;2023-03-03T13:11:09;101987.94;;;6.75;75.59
55010;BME280;40903;51.638;7.528;2023-03-03T13:13:49;101986.66;;;6.77;75.51
55010;BME280;40903;51.638;7.528;2023-03-03T13:16:37;101988.91;;;6.80;76.12
55010;BME280;40903;51.638;7.528;2023-03-03T13:19:25;101982.75;;;6.73;75.07
55010;BME280;40903;51.638;7.528;2023-03-03T13:21:53;101987.09;;;6.74;74.34
55010;BME280;40903;51.638;7.528;2023-03-03T13:24:22;101978.41;;;7.07;75.70
55010;BME280;40903;51.638;7.528;2023-03-03T13:29:19;101979.56;;;7.34;74.14
55010;BME280;40903;51.638;7.528;2023-03-03T13:31:48;101978.03;;;7.26;73.09
55010;BME280;40903;51.638;7.528;2023-03-03T13:39:40;101965.75;;;8.02;73.35
55010;BME280;40903;51.638;7.528;2023-03-03T13:44:42;101970.63;;;8.28;69.69
55010;BME280;40903;51.638;7.528;2023-03-03T13:47:19;101977.38;;;8.26;68.13
55010;BME280;40903;51.638;7.528;2023-03-03T13:52:33;101965.16;;;8.12;69.44
55010;BME280;40903;51.638;7.528;2023-03-03T14:00:53;101960.44;;;7.79;69.35
55010;BME280;40903;51.638;7.528;2023-03-03T14:03:26;101953.59;;;7.77;70.84
55010;BME280;40903;51.638;7.528;2023-03-03T14:06:03;101955.59;;;7.81;71.20
55010;BME280;40903;51.638;7.528;2023-03-03T14:08:43;101958.84;;;7.67;69.14
55010;BME280;40903;51.638;7.528;2023-03-03T14:16:20;101946.94;;;7.84;69.36
55010;BME280;40903;51.638;7.528;2023-03-03T14:18:56;101945.69;;;7.75;69.32
55010;BME280;40903;51.638;7.528;2023-03-03T14:21:26;101945.72;;;7.64;69.17
55010;BME280;40903;51.638;7.528;2023-03-03T14:26:47;101932.09;;;7.48;71.45
55010;BME280;40903;51.638;7.528;2023-03-03T14:31:51;101924.91;;;7.53;73.58
55010;BME280;40903;51.638;7.528;2023-03-03T14:36:48;101926.84;;;7.58;70.18
55010;BME280;40903;51.638;7.528;2023-03-03T14:39:29;101931.06;;;7.37;70.65
55010;BME280;40903;51.638;7.528;2023-03-03T14:41:56;101920.34;;;7.31;71.20
55010;BME280;40903;51.638;7.528;2023-03-03T14:44:30;101919.38;;;7.37;71.61
55010;BME280;40903;51.638;7.528;2023-03-03T14:47:00;101919.72;;;7.40;72.17
55010;BME280;40903;51.638;7.528;2023-03-03T14:49:30;101921.59;;;7.40;72.17
55010;BME280;40903;51.638;7.528;2023-03-03T14:52:19;101924.44;;;7.45;71.43
55010;BME280;40903;51.638;7.528;2023-03-03T14:54:46;101923.59;;;7.44;71.97
55010;BME280;40903;51.638;7.528;2023-03-03T14:57:22;101922.81;;;7.44;72.39
55010;BME280;40903;51.638;7.528;2023-03-03T15:05:35;101915.59;;;7.38;72.56
55010;BME280;40903;51.638;7.528;2023-03-03T15:10:29;101908.34;;;7.15;73.02
55010;BME280;40903;51.638;7.528;2023-03-03T15:12:55;101900.47;;;7.14;74.52
55010;BME280;40903;51.638;7.528;2023-03-03T15:15:21;101904.69;;;7.21;74.66
55010;BME280;40903;51.638;7.528;2023-03-03T15:36:12;101881.78;;;7.29;75.66
55010;BME280;40903;51.638;7.528;2023-03-03T15:38:50;101886.28;;;7.23;76.22
55010;BME280;40903;51.638;7.528;2023-03-03T15:46:34;101880.72;;;7.18;76.32
55010;BME280;40903;51.638;7.528;2023-03-03T15:56:47;101874.16;;;7.14;74.59
55010;BME280;40903;51.638;7.528;2023-03-03T15:59:36;101871.34;;;7.09;75.43
55010;BME280;40903;51.638;7.528;2023-03-03T16:02:25;101872.03;;;7.05;75.21
55010;BME280;40903;51.638;7.528;2023-03-03T16:05:17;101875.13;;;6.97;75.61
55010;BME280;40903;51.638;7.528;2023-03-03T16:10:18;101869.25;;;6.77;77.44
55010;BME280;40903;51.638;7.528;2023-03-03T16:18:18;101866.44;;;6.49;78.69
55010;BME280;40903;51.638;7.528;2023-03-03T16:23:30;101870.66;;;6.22;79.66
55010;BME280;40903;51.638;7.528;2023-03-03T16:28:33;101871.34;;;6.06;80.79
55010;BME280;40903;51.638;7.528;2023-03-03T16:31:08;101867.56;;;5.95;81.33
55010;BME280;40903;51.638;7.528;2023-03-03T16:38:57;101865.19;;;5.69;82.50